sensor_id;sensor_type;location;lat;lon;timestamp;P1;durP1;ratioP1;P2;durP2;ratioP2
70444;SDS011;57902;49.638;11.070;2024-03-08T00:02:18;24.13;;;9.68;;
70444;SDS011;57902;49.638;11.070;2024-03-08T00:04:45;22.27;;;8.95;;
70444;SDS011;57902;49.638;11.070;2024-03-08T00:07:12;26.98;;;8.60;;
70444;SDS011;57902;49.638;11.070;2024-03-08T00:09:39;28.65;;;8.77;;
70444;SDS011;57902;49.638;11.070;2024-03-08T00:12:06;23.23;;;9.80;;
70444;SDS011;57902;49.638;11.070;2024-03-08T00:14:33;29.17;;;10.20;;
70444;SDS011;57902;49.638;11.070;2024-03-08T00:16:59;25.77;;;9.13;;
70444;SDS011;57902;49.638;11.070;2024-03-08T00:19:26;25.40;;;9.38;;
70444;SDS011;57902;49.638;11.070;2024-03-08T00:21:52;26.15;;;9.38;;
70444;SDS011;57902;49.638;11.070;2024-03-08T00:24:19;26.60;;;8.77;;
70444;SDS011;57902;49.638;11.070;2024-03-08T00:26:50;25.48;;;9.32;;
70444;SDS011;57902;49.638;11.070;2024-03-08T00:29:16;21.98;;;8.82;;
70444;SDS011;57902;49.638;11.070;2024-03-08T00:31:43;28.02;;;10.18;;
70444;SDS011;57902;49.638;11.070;2024-03-08T00:34:10;26.73;;;10.32;;
70444;SDS011;57902;49.638;11.070;2024-03-08T00:36:38;25.38;;;9.57;;
70444;SDS011;57902;49.638;11.070;2024-03-08T00:39:05;23.67;;;9.68;;
70444;SDS011;57902;49.638;11.070;2024-03-08T00:41:34;25.20;;;9.30;;
70444;SDS011;57902;49.638;11.070;2024-03-08T00:44:01;24.38;;;10.50;;
70444;SDS011;57902;49.638;11.070;2024-03-08T00:46:29;22.70;;;9.43;;
70444;SDS011;57902;49.638;11.070;2024-03-08T00:48:57;22.15;;;8.73;;
70444;SDS011;57902;49.638;11.070;2024-03-08T00:51:24;23.73;;;8.02;;
70444;SDS011;57902;49.638;11.070;2024-03-08T00:53:50;23.30;;;9.15;;
70444;SDS011;57902;49.638;11.070;2024-03-08T00:56:17;24.20;;;9.35;;
70444;SDS011;57902;49.638;11.070;2024-03-08T00:58:44;24.83;;;9.60;;
70444;SDS011;57902;49.638;11.070;2024-03-08T01:01:10;26.13;;;9.35;;
70444;SDS011;57902;49.638;11.070;2024-03-08T01:03:39;26.30;;;9.43;;
70444;SDS011;57902;49.638;11.070;2024-03-08T01:06:05;21.15;;;8.25;;
70444;SDS011;57902;49.638;11.070;2024-03-08T01:08:32;22.02;;;8.55;;
70444;SDS011;57902;49.638;11.070;2024-03-08T01:10:59;25.58;;;10.02;;
70444;SDS011;57902;49.638;11.070;2024-03-08T01:13:25;24.45;;;8.30;;
70444;SDS011;57902;49.638;11.070;2024-03-08T01:15:52;28.35;;;9.48;;
70444;SDS011;57902;49.638;11.070;2024-03-08T01:18:18;24.70;;;9.77;;
70444;SDS011;57902;49.638;11.070;2024-03-08T01:20:46;21.13;;;8.43;;
70444;SDS011;57902;49.638;11.070;2024-03-08T01:23:12;31.13;;;10.30;;
70444;SDS011;57902;49.638;11.070;2024-03-08T01:25:40;26.20;;;9.55;;
70444;SDS011;57902;49.638;11.070;2024-03-08T01:28:07;20.90;;;8.02;;
70444;SDS011;57902;49.638;11.070;2024-03-08T01:30:34;23.60;;;8.73;;
70444;SDS011;57902;49.638;11.070;2024-03-08T01:33:03;25.80;;;9.20;;
70444;SDS011;57902;49.638;11.070;2024-03-08T01:35:30;25.38;;;8.40;;
70444;SDS011;57902;49.638;11.070;2024-03-08T01:37:57;26.27;;;9.90;;
70444;SDS011;57902;49.638;11.070;2024-03-08T01:40:23;23.02;;;9.13;;
70444;SDS011;57902;49.638;11.070;2024-03-08T01:42:50;23.67;;;8.65;;
70444;SDS011;57902;49.638;11.070;2024-03-08T01:45:16;21.70;;;8.93;;
70444;SDS011;57902;49.638;11.070;2024-03-08T01:47:43;22.08;;;9.10;;
70444;SDS011;57902;49.638;11.070;2024-03-08T01:50:10;22.25;;;9.65;;
70444;SDS011;57902;49.638;11.070;2024-03-08T01:52:37;23.08;;;9.55;;
70444;SDS011;57902;49.638;11.070;2024-03-08T01:55:04;22.90;;;8.65;;
70444;SDS011;57902;49.638;11.070;2024-03-08T01:57:33;26.80;;;9.30;;
70444;SDS011;57902;49.638;11.070;2024-03-08T02:00:01;27.23;;;9.43;;
70444;SDS011;57902;49.638;11.070;2024-03-08T02:02:32;31.23;;;10.25;;
70444;SDS011;57902;49.638;11.070;2024-03-08T02:05:00;25.25;;;10.27;;
70444;SDS011;57902;49.638;11.070;2024-03-08T02:07:27;24.35;;;9.05;;
70444;SDS011;57902;49.638;11.070;2024-03-08T02:09:54;24.95;;;9.90;;
70444;SDS011;57902;49.638;11.070;2024-03-08T02:12:20;23.33;;;8.20;;
70444;SDS011;57902;49.638;11.070;2024-03-08T02:14:47;22.83;;;9.18;;
70444;SDS011;57902;49.638;11.070;2024-03-08T02:17:15;25.70;;;9.35;;
70444;SDS011;57902;49.638;11.070;2024-03-08T02:19:41;26.08;;;9.75;;
70444;SDS011;57902;49.638;11.070;2024-03-08T02:22:08;22.17;;;9.13;;
70444;SDS011;57902;49.638;11.070;2024-03-08T02:24:35;26.55;;;9.18;;
70444;SDS011;57902;49.638;11.070;2024-03-08T02:27:02;25.70;;;10.15;;
70444;SDS011;57902;49.638;11.070;2024-03-08T02:29:28;25.80;;;9.80;;
70444;SDS011;57902;49.638;11.070;2024-03-08T02:31:57;23.88;;;9.55;;
70444;SDS011;57902;49.638;11.070;2024-03-08T02:34:23;22.35;;;9.25;;
70444;SDS011;57902;49.638;11.070;2024-03-08T02:36:50;27.42;;;9.70;;
70444;SDS011;57902;49.638;11.070;2024-03-08T02:39:16;20.92;;;7.82;;
70444;SDS011;57902;49.638;11.070;2024-03-08T02:41:43;24.55;;;8.85;;
70444;SDS011;57902;49.638;11.070;2024-03-08T02:44:09;26.63;;;9.52;;
70444;SDS011;57902;49.638;11.070;2024-03-08T02:46:36;26.60;;;9.63;;
70444;SDS011;57902;49.638;11.070;2024-03-08T02:49:02;23.60;;;8.73;;
70444;SDS011;57902;49.638;11.070;2024-03-08T02:51:29;29.60;;;9.50;;
70444;SDS011;57902;49.638;11.070;2024-03-08T02:53:57;25.88;;;9.63;;
70444;SDS011;57902;49.638;11.070;2024-03-08T02:56:23;24.75;;;9.75;;
70444;SDS011;57902;49.638;11.070;2024-03-08T02:58:50;18.88;;;7.28;;
70444;SDS011;57902;49.638;11.070;2024-03-08T03:01:17;24.02;;;8.88;;
70444;SDS011;57902;49.638;11.070;2024-03-08T03:03:43;27.40;;;10.27;;
70444;SDS011;57902;49.638;11.070;2024-03-08T03:06:10;23.25;;;9.02;;
70444;SDS011;57902;49.638;11.070;2024-03-08T03:08:36;25.52;;;9.90;;
70444;SDS011;57902;49.638;11.070;2024-03-08T03:11:03;26.92;;;9.48;;
70444;SDS011;57902;49.638;11.070;2024-03-08T03:13:29;24.58;;;9.65;;
70444;SDS011;57902;49.638;11.070;2024-03-08T03:15:56;26.70;;;10.23;;
70444;SDS011;57902;49.638;11.070;2024-03-08T03:18:24;24.10;;;9.43;;
70444;SDS011;57902;49.638;11.070;2024-03-08T03:20:52;26.60;;;9.63;;
70444;SDS011;57902;49.638;11.070;2024-03-08T03:23:19;30.48;;;10.90;;
70444;SDS011;57902;49.638;11.070;2024-03-08T03:25:47;26.48;;;10.00;;
70444;SDS011;57902;49.638;11.070;2024-03-08T03:28:14;26.65;;;10.38;;
70444;SDS011;57902;49.638;11.070;2024-03-08T03:30:45;24.15;;;9.85;;
70444;SDS011;57902;49.638;11.070;2024-03-08T03:33:12;29.55;;;10.73;;
70444;SDS011;57902;49.638;11.070;2024-03-08T03:38:09;27.25;;;9.90;;
70444;SDS011;57902;49.638;11.070;2024-03-08T03:40:37;26.63;;;9.93;;
70444;SDS011;57902;49.638;11.070;2024-03-08T03:43:05;26.05;;;9.85;;
70444;SDS011;57902;49.638;11.070;2024-03-08T03:45:32;28.90;;;10.68;;
70444;SDS011;57902;49.638;11.070;2024-03-08T03:48:04;29.80;;;10.52;;
70444;SDS011;57902;49.638;11.070;2024-03-08T03:50:33;28.08;;;9.95;;
70444;SDS011;57902;49.638;11.070;2024-03-08T03:53:02;24.33;;;8.95;;
70444;SDS011;57902;49.638;11.070;2024-03-08T03:55:29;24.83;;;10.65;;
70444;SDS011;57902;49.638;11.070;2024-03-08T03:57:56;25.95;;;10.23;;
70444;SDS011;57902;49.638;11.070;2024-03-08T04:00:25;25.42;;;9.18;;
70444;SDS011;57902;49.638;11.070;2024-03-08T04:02:53;29.70;;;10.60;;
70444;SDS011;57902;49.638;11.070;2024-03-08T04:05:21;26.90;;;11.07;;
70444;SDS011;57902;49.638;11.070;2024-03-08T04:07:47;29.67;;;10.95;;
70444;SDS011;57902;49.638;11.070;2024-03-08T04:10:14;26.70;;;11.07;;
70444;SDS011;57902;49.638;11.070;2024-03-08T04:12:40;28.00;;;10.77;;
70444;SDS011;57902;49.638;11.070;2024-03-08T04:15:07;28.15;;;10.57;;
70444;SDS011;57902;49.638;11.070;2024-03-08T04:17:34;29.63;;;10.75;;
70444;SDS011;57902;49.638;11.070;2024-03-08T04:20:04;27.77;;;10.75;;
70444;SDS011;57902;49.638;11.070;2024-03-08T04:22:36;28.17;;;11.10;;
70444;SDS011;57902;49.638;11.070;2024-03-08T04:25:03;28.52;;;11.27;;
70444;SDS011;57902;49.638;11.070;2024-03-08T04:27:30;26.15;;;10.00;;
70444;SDS011;57902;49.638;11.070;2024-03-08T04:29:59;29.92;;;10.63;;
70444;SDS011;57902;49.638;11.070;2024-03-08T04:32:26;26.33;;;10.57;;
70444;SDS011;57902;49.638;11.070;2024-03-08T04:34:54;30.60;;;11.00;;
70444;SDS011;57902;49.638;11.070;2024-03-08T04:37:21;30.92;;;11.50;;
70444;SDS011;57902;49.638;11.070;2024-03-08T04:39:48;32.30;;;11.82;;
70444;SDS011;57902;49.638;11.070;2024-03-08T04:42:14;29.80;;;11.20;;
70444;SDS011;57902;49.638;11.070;2024-03-08T04:44:42;31.45;;;11.50;;
70444;SDS011;57902;49.638;11.070;2024-03-08T04:47:09;29.10;;;11.15;;
70444;SDS011;57902;49.638;11.070;2024-03-08T04:49:37;29.02;;;10.85;;
70444;SDS011;57902;49.638;11.070;2024-03-08T04:52:03;30.05;;;10.27;;
70444;SDS011;57902;49.638;11.070;2024-03-08T04:54:31;27.00;;;11.38;;
70444;SDS011;57902;49.638;11.070;2024-03-08T04:56:57;30.08;;;10.75;;
70444;SDS011;57902;49.638;11.070;2024-03-08T04:59:26;24.98;;;10.15;;
70444;SDS011;57902;49.638;11.070;2024-03-08T05:01:54;29.60;;;10.15;;
70444;SDS011;57902;49.638;11.070;2024-03-08T05:04:21;29.67;;;11.52;;
70444;SDS011;57902;49.638;11.070;2024-03-08T05:06:47;29.83;;;10.05;;
70444;SDS011;57902;49.638;11.070;2024-03-08T05:09:14;29.02;;;11.48;;
70444;SDS011;57902;49.638;11.070;2024-03-08T05:11:42;29.75;;;11.02;;
70444;SDS011;57902;49.638;11.070;2024-03-08T05:14:10;30.20;;;10.48;;
70444;SDS011;57902;49.638;11.070;2024-03-08T05:16:38;31.65;;;11.32;;
70444;SDS011;57902;49.638;11.070;2024-03-08T05:19:06;30.90;;;11.45;;
70444;SDS011;57902;49.638;11.070;2024-03-08T05:21:33;27.80;;;10.70;;
70444;SDS011;57902;49.638;11.070;2024-03-08T05:24:00;30.13;;;11.10;;
70444;SDS011;57902;49.638;11.070;2024-03-08T05:26:26;29.02;;;10.85;;
70444;SDS011;57902;49.638;11.070;2024-03-08T05:28:53;27.92;;;10.70;;
70444;SDS011;57902;49.638;11.070;2024-03-08T05:31:23;29.05;;;11.02;;
70444;SDS011;57902;49.638;11.070;2024-03-08T05:33:49;33.60;;;11.93;;
70444;SDS011;57902;49.638;11.070;2024-03-08T05:36:16;30.60;;;12.18;;
70444;SDS011;57902;49.638;11.070;2024-03-08T05:38:43;31.83;;;11.73;;
70444;SDS011;57902;49.638;11.070;2024-03-08T05:41:10;32.00;;;12.38;;
70444;SDS011;57902;49.638;11.070;2024-03-08T05:43:41;34.13;;;11.80;;
70444;SDS011;57902;49.638;11.070;2024-03-08T05:46:08;30.42;;;11.75;;
70444;SDS011;57902;49.638;11.070;2024-03-08T05:48:34;30.23;;;11.73;;
70444;SDS011;57902;49.638;11.070;2024-03-08T05:51:01;31.33;;;12.55;;
70444;SDS011;57902;49.638;11.070;2024-03-08T05:53:28;31.75;;;11.63;;
70444;SDS011;57902;49.638;11.070;2024-03-08T05:55:58;34.20;;;13.05;;
70444;SDS011;57902;49.638;11.070;2024-03-08T05:58:25;31.73;;;11.40;;
70444;SDS011;57902;49.638;11.070;2024-03-08T06:00:51;35.95;;;13.40;;
70444;SDS011;57902;49.638;11.070;2024-03-08T06:03:19;31.85;;;12.35;;
70444;SDS011;57902;49.638;11.070;2024-03-08T06:05:48;34.30;;;11.27;;
70444;SDS011;57902;49.638;11.070;2024-03-08T06:08:15;29.98;;;11.57;;
70444;SDS011;57902;49.638;11.070;2024-03-08T06:10:42;32.50;;;11.25;;
70444;SDS011;57902;49.638;11.070;2024-03-08T06:13:09;33.25;;;12.70;;
70444;SDS011;57902;49.638;11.070;2024-03-08T06:15:38;32.78;;;11.30;;
70444;SDS011;57902;49.638;11.070;2024-03-08T06:18:04;27.70;;;10.63;;
70444;SDS011;57902;49.638;11.070;2024-03-08T06:20:32;30.27;;;11.20;;
70444;SDS011;57902;49.638;11.070;2024-03-08T06:22:59;33.08;;;11.63;;
70444;SDS011;57902;49.638;11.070;2024-03-08T06:25:26;31.13;;;11.52;;
70444;SDS011;57902;49.638;11.070;2024-03-08T06:27:52;34.63;;;11.18;;
70444;SDS011;57902;49.638;11.070;2024-03-08T06:30:19;34.22;;;12.45;;
70444;SDS011;57902;49.638;11.070;2024-03-08T06:32:46;37.20;;;13.38;;
70444;SDS011;57902;49.638;11.070;2024-03-08T06:35:13;29.35;;;10.52;;
70444;SDS011;57902;49.638;11.070;2024-03-08T06:37:42;36.80;;;12.50;;
70444;SDS011;57902;49.638;11.070;2024-03-08T06:40:11;33.70;;;12.13;;
70444;SDS011;57902;49.638;11.070;2024-03-08T06:42:40;34.58;;;12.25;;
70444;SDS011;57902;49.638;11.070;2024-03-08T06:45:08;32.78;;;12.02;;
70444;SDS011;57902;49.638;11.070;2024-03-08T06:47:36;23.17;;;8.00;;
70444;SDS011;57902;49.638;11.070;2024-03-08T06:50:03;32.65;;;11.88;;
70444;SDS011;57902;49.638;11.070;2024-03-08T06:52:30;30.40;;;12.15;;
70444;SDS011;57902;49.638;11.070;2024-03-08T06:54:57;35.47;;;11.75;;
70444;SDS011;57902;49.638;11.070;2024-03-08T06:57:24;30.48;;;11.38;;
70444;SDS011;57902;49.638;11.070;2024-03-08T06:59:51;35.42;;;12.75;;
70444;SDS011;57902;49.638;11.070;2024-03-08T07:02:18;29.30;;;11.25;;
70444;SDS011;57902;49.638;11.070;2024-03-08T07:04:45;29.42;;;10.77;;
70444;SDS011;57902;49.638;11.070;2024-03-08T07:07:12;32.38;;;11.52;;
70444;SDS011;57902;49.638;11.070;2024-03-08T07:09:38;27.30;;;9.65;;
70444;SDS011;57902;49.638;11.070;2024-03-08T07:12:05;29.30;;;10.88;;
70444;SDS011;57902;49.638;11.070;2024-03-08T07:14:32;29.80;;;11.38;;
70444;SDS011;57902;49.638;11.070;2024-03-08T07:16:59;37.70;;;12.07;;
70444;SDS011;57902;49.638;11.070;2024-03-08T07:19:28;32.53;;;11.70;;
70444;SDS011;57902;49.638;11.070;2024-03-08T07:21:55;29.40;;;11.15;;
70444;SDS011;57902;49.638;11.070;2024-03-08T07:24:21;31.25;;;11.52;;
70444;SDS011;57902;49.638;11.070;2024-03-08T07:27:04;20.38;;;7.68;;
70444;SDS011;57902;49.638;11.070;2024-03-08T07:29:34;28.25;;;12.35;;
70444;SDS011;57902;49.638;11.070;2024-03-08T07:32:01;29.98;;;11.43;;
70444;SDS011;57902;49.638;11.070;2024-03-08T07:34:30;28.67;;;12.02;;
70444;SDS011;57902;49.638;11.070;2024-03-08T07:36:58;26.83;;;10.52;;
70444;SDS011;57902;49.638;11.070;2024-03-08T07:39:25;28.80;;;11.43;;
70444;SDS011;57902;49.638;11.070;2024-03-08T07:41:52;30.35;;;11.27;;
70444;SDS011;57902;49.638;11.070;2024-03-08T07:44:19;30.13;;;11.57;;
70444;SDS011;57902;49.638;11.070;2024-03-08T07:46:46;26.90;;;10.57;;
70444;SDS011;57902;49.638;11.070;2024-03-08T07:49:12;25.23;;;10.15;;
70444;SDS011;57902;49.638;11.070;2024-03-08T07:51:40;29.88;;;10.90;;
70444;SDS011;57902;49.638;11.070;2024-03-08T07:54:07;28.15;;;11.57;;
70444;SDS011;57902;49.638;11.070;2024-03-08T07:56:35;30.33;;;12.77;;
70444;SDS011;57902;49.638;11.070;2024-03-08T08:01:30;30.90;;;10.73;;
70444;SDS011;57902;49.638;11.070;2024-03-08T08:03:57;30.50;;;12.57;;
70444;SDS011;57902;49.638;11.070;2024-03-08T08:06:24;29.50;;;11.98;;
70444;SDS011;57902;49.638;11.070;2024-03-08T08:08:51;27.83;;;11.15;;
70444;SDS011;57902;49.638;11.070;2024-03-08T08:11:18;24.60;;;10.98;;
70444;SDS011;57902;49.638;11.070;2024-03-08T08:13:45;30.65;;;12.57;;
70444;SDS011;57902;49.638;11.070;2024-03-08T08:16:11;28.73;;;11.88;;
70444;SDS011;57902;49.638;11.070;2024-03-08T08:18:39;27.05;;;11.30;;
70444;SDS011;57902;49.638;11.070;2024-03-08T08:21:07;29.33;;;12.20;;
70444;SDS011;57902;49.638;11.070;2024-03-08T08:23:33;24.58;;;11.35;;
70444;SDS011;57902;49.638;11.070;2024-03-08T08:26:00;29.63;;;12.35;;
70444;SDS011;57902;49.638;11.070;2024-03-08T08:28:29;25.00;;;11.75;;
70444;SDS011;57902;49.638;11.070;2024-03-08T08:30:57;32.90;;;12.93;;
70444;SDS011;57902;49.638;11.070;2024-03-08T08:33:23;30.77;;;11.50;;
70444;SDS011;57902;49.638;11.070;2024-03-08T08:35:51;25.25;;;11.32;;
70444;SDS011;57902;49.638;11.070;2024-03-08T08:38:20;30.80;;;12.07;;
70444;SDS011;57902;49.638;11.070;2024-03-08T08:40:46;27.40;;;11.48;;
70444;SDS011;57902;49.638;11.070;2024-03-08T08:43:13;23.40;;;9.88;;
70444;SDS011;57902;49.638;11.070;2024-03-08T08:45:40;22.70;;;10.07;;
70444;SDS011;57902;49.638;11.070;2024-03-08T08:48:07;24.25;;;11.27;;
70444;SDS011;57902;49.638;11.070;2024-03-08T08:50:33;26.60;;;11.38;;
70444;SDS011;57902;49.638;11.070;2024-03-08T08:53:00;28.83;;;12.40;;
70444;SDS011;57902;49.638;11.070;2024-03-08T08:55:27;24.77;;;11.57;;
70444;SDS011;57902;49.638;11.070;2024-03-08T08:57:54;28.27;;;11.77;;
70444;SDS011;57902;49.638;11.070;2024-03-08T09:00:20;27.17;;;11.38;;
70444;SDS011;57902;49.638;11.070;2024-03-08T09:02:50;24.52;;;10.50;;
70444;SDS011;57902;49.638;11.070;2024-03-08T09:05:17;24.95;;;11.10;;
70444;SDS011;57902;49.638;11.070;2024-03-08T09:07:44;26.63;;;9.93;;
70444;SDS011;57902;49.638;11.070;2024-03-08T09:10:11;26.08;;;10.43;;
70444;SDS011;57902;49.638;11.070;2024-03-08T09:12:43;23.02;;;10.18;;
70444;SDS011;57902;49.638;11.070;2024-03-08T09:15:10;24.23;;;8.95;;
70444;SDS011;57902;49.638;11.070;2024-03-08T09:17:38;24.70;;;10.35;;
70444;SDS011;57902;49.638;11.070;2024-03-08T09:20:06;23.27;;;9.70;;
70444;SDS011;57902;49.638;11.070;2024-03-08T09:22:34;21.63;;;8.98;;
70444;SDS011;57902;49.638;11.070;2024-03-08T09:25:01;26.20;;;9.10;;
70444;SDS011;57902;49.638;11.070;2024-03-08T09:27:31;21.50;;;8.98;;
70444;SDS011;57902;49.638;11.070;2024-03-08T09:29:58;23.60;;;8.57;;
70444;SDS011;57902;49.638;11.070;2024-03-08T09:32:24;22.95;;;8.40;;
70444;SDS011;57902;49.638;11.070;2024-03-08T09:34:51;23.38;;;9.50;;
70444;SDS011;57902;49.638;11.070;2024-03-08T09:37:17;22.05;;;8.43;;
70444;SDS011;57902;49.638;11.070;2024-03-08T09:39:45;23.13;;;9.00;;
70444;SDS011;57902;49.638;11.070;2024-03-08T09:42:11;21.23;;;8.07;;
70444;SDS011;57902;49.638;11.070;2024-03-08T09:44:47;21.40;;;7.75;;
70444;SDS011;57902;49.638;11.070;2024-03-08T09:47:14;18.27;;;8.10;;
70444;SDS011;57902;49.638;11.070;2024-03-08T09:49:41;22.13;;;8.20;;
70444;SDS011;57902;49.638;11.070;2024-03-08T09:52:09;22.00;;;8.10;;
70444;SDS011;57902;49.638;11.070;2024-03-08T09:54:36;19.10;;;7.47;;
70444;SDS011;57902;49.638;11.070;2024-03-08T09:57:06;22.00;;;7.90;;
70444;SDS011;57902;49.638;11.070;2024-03-08T09:59:35;20.73;;;8.73;;
70444;SDS011;57902;49.638;11.070;2024-03-08T10:02:02;20.40;;;8.20;;
70444;SDS011;57902;49.638;11.070;2024-03-08T10:04:29;23.88;;;8.95;;
70444;SDS011;57902;49.638;11.070;2024-03-08T10:06:57;20.02;;;8.88;;
70444;SDS011;57902;49.638;11.070;2024-03-08T10:09:25;20.10;;;7.65;;
70444;SDS011;57902;49.638;11.070;2024-03-08T10:11:55;25.00;;;9.18;;
70444;SDS011;57902;49.638;11.070;2024-03-08T10:14:22;21.10;;;8.40;;
70444;SDS011;57902;49.638;11.070;2024-03-08T10:16:49;21.92;;;8.50;;
70444;SDS011;57902;49.638;11.070;2024-03-08T10:19:16;21.73;;;7.88;;
70444;SDS011;57902;49.638;11.070;2024-03-08T10:21:52;21.15;;;8.45;;
70444;SDS011;57902;49.638;11.070;2024-03-08T10:24:23;18.23;;;7.57;;
70444;SDS011;57902;49.638;11.070;2024-03-08T10:26:53;18.25;;;7.50;;
70444;SDS011;57902;49.638;11.070;2024-03-08T10:29:24;20.80;;;8.80;;
70444;SDS011;57902;49.638;11.070;2024-03-08T10:31:51;20.50;;;7.93;;
70444;SDS011;57902;49.638;11.070;2024-03-08T10:34:18;22.33;;;7.90;;
70444;SDS011;57902;49.638;11.070;2024-03-08T10:36:46;19.98;;;7.85;;
70444;SDS011;57902;49.638;11.070;2024-03-08T10:39:24;19.17;;;6.80;;
70444;SDS011;57902;49.638;11.070;2024-03-08T10:42:02;18.48;;;6.93;;
70444;SDS011;57902;49.638;11.070;2024-03-08T10:47:05;22.38;;;8.38;;
70444;SDS011;57902;49.638;11.070;2024-03-08T10:52:13;20.55;;;7.85;;
70444;SDS011;57902;49.638;11.070;2024-03-08T10:54:43;17.63;;;6.93;;
70444;SDS011;57902;49.638;11.070;2024-03-08T10:57:12;19.35;;;6.78;;
70444;SDS011;57902;49.638;11.070;2024-03-08T10:59:39;20.13;;;8.13;;
70444;SDS011;57902;49.638;11.070;2024-03-08T11:02:06;19.13;;;8.13;;
70444;SDS011;57902;49.638;11.070;2024-03-08T11:04:33;16.48;;;6.53;;
70444;SDS011;57902;49.638;11.070;2024-03-08T11:07:03;18.08;;;7.22;;
70444;SDS011;57902;49.638;11.070;2024-03-08T11:09:36;20.05;;;8.07;;
70444;SDS011;57902;49.638;11.070;2024-03-08T11:15:09;17.75;;;6.82;;
70444;SDS011;57902;49.638;11.070;2024-03-08T11:20:15;20.05;;;6.28;;
70444;SDS011;57902;49.638;11.070;2024-03-08T11:23:03;18.40;;;6.40;;
70444;SDS011;57902;49.638;11.070;2024-03-08T11:28:14;16.33;;;7.15;;
70444;SDS011;57902;49.638;11.070;2024-03-08T11:33:29;18.70;;;6.95;;
70444;SDS011;57902;49.638;11.070;2024-03-08T11:38:40;19.90;;;6.72;;
70444;SDS011;57902;49.638;11.070;2024-03-08T11:41:08;18.05;;;6.78;;
70444;SDS011;57902;49.638;11.070;2024-03-08T11:43:41;17.08;;;5.72;;
70444;SDS011;57902;49.638;11.070;2024-03-08T11:46:08;14.80;;;5.95;;
70444;SDS011;57902;49.638;11.070;2024-03-08T11:48:35;19.15;;;7.30;;
70444;SDS011;57902;49.638;11.070;2024-03-08T11:51:04;17.33;;;7.00;;
70444;SDS011;57902;49.638;11.070;2024-03-08T11:53:31;17.05;;;6.30;;
70444;SDS011;57902;49.638;11.070;2024-03-08T11:56:07;14.73;;;6.25;;
70444;SDS011;57902;49.638;11.070;2024-03-08T11:58:35;16.23;;;6.45;;
70444;SDS011;57902;49.638;11.070;2024-03-08T12:01:08;15.40;;;6.57;;
70444;SDS011;57902;49.638;11.070;2024-03-08T12:03:39;15.25;;;5.80;;
70444;SDS011;57902;49.638;11.070;2024-03-08T12:06:06;17.20;;;6.40;;
70444;SDS011;57902;49.638;11.070;2024-03-08T12:08:35;19.55;;;6.93;;
70444;SDS011;57902;49.638;11.070;2024-03-08T12:11:05;16.75;;;6.07;;
70444;SDS011;57902;49.638;11.070;2024-03-08T12:13:32;17.00;;;6.60;;
70444;SDS011;57902;49.638;11.070;2024-03-08T12:16:02;15.02;;;6.45;;
70444;SDS011;57902;49.638;11.070;2024-03-08T12:18:34;15.88;;;6.68;;
70444;SDS011;57902;49.638;11.070;2024-03-08T12:21:07;14.27;;;6.18;;
70444;SDS011;57902;49.638;11.070;2024-03-08T12:23:35;14.23;;;6.07;;
70444;SDS011;57902;49.638;11.070;2024-03-08T12:26:12;14.10;;;6.30;;
70444;SDS011;57902;49.638;11.070;2024-03-08T12:28:40;15.27;;;6.00;;
70444;SDS011;57902;49.638;11.070;2024-03-08T12:31:11;18.10;;;7.45;;
70444;SDS011;57902;49.638;11.070;2024-03-08T12:33:51;17.63;;;6.97;;
70444;SDS011;57902;49.638;11.070;2024-03-08T12:36:22;16.30;;;6.28;;
70444;SDS011;57902;49.638;11.070;2024-03-08T12:38:49;21.63;;;6.50;;
70444;SDS011;57902;49.638;11.070;2024-03-08T12:41:16;16.73;;;6.28;;
70444;SDS011;57902;49.638;11.070;2024-03-08T12:43:45;17.75;;;6.03;;
70444;SDS011;57902;49.638;11.070;2024-03-08T12:46:19;17.45;;;7.00;;
70444;SDS011;57902;49.638;11.070;2024-03-08T12:48:47;15.73;;;6.63;;
70444;SDS011;57902;49.638;11.070;2024-03-08T12:51:15;18.33;;;6.70;;
70444;SDS011;57902;49.638;11.070;2024-03-08T12:53:42;22.00;;;7.47;;
70444;SDS011;57902;49.638;11.070;2024-03-08T12:56:12;18.45;;;7.38;;
70444;SDS011;57902;49.638;11.070;2024-03-08T12:58:43;15.75;;;6.47;;
70444;SDS011;57902;49.638;11.070;2024-03-08T13:01:10;16.98;;;6.63;;
70444;SDS011;57902;49.638;11.070;2024-03-08T13:03:38;16.25;;;5.75;;
70444;SDS011;57902;49.638;11.070;2024-03-08T13:06:06;20.48;;;6.38;;
70444;SDS011;57902;49.638;11.070;2024-03-08T13:08:36;16.52;;;6.22;;
70444;SDS011;57902;49.638;11.070;2024-03-08T13:11:05;17.83;;;6.65;;
70444;SDS011;57902;49.638;11.070;2024-03-08T13:13:33;16.15;;;6.97;;
70444;SDS011;57902;49.638;11.070;2024-03-08T13:16:03;16.02;;;6.38;;
70444;SDS011;57902;49.638;11.070;2024-03-08T13:18:30;12.30;;;4.68;;
70444;SDS011;57902;49.638;11.070;2024-03-08T13:20:57;17.52;;;6.13;;
70444;SDS011;57902;49.638;11.070;2024-03-08T13:23:23;13.13;;;5.57;;
70444;SDS011;57902;49.638;11.070;2024-03-08T13:25:50;15.32;;;6.18;;
70444;SDS011;57902;49.638;11.070;2024-03-08T13:28:17;15.07;;;5.35;;
70444;SDS011;57902;49.638;11.070;2024-03-08T13:30:49;17.05;;;6.72;;
70444;SDS011;57902;49.638;11.070;2024-03-08T13:33:20;16.35;;;6.70;;
70444;SDS011;57902;49.638;11.070;2024-03-08T13:35:47;17.38;;;7.30;;
70444;SDS011;57902;49.638;11.070;2024-03-08T13:38:16;15.95;;;6.47;;
70444;SDS011;57902;49.638;11.070;2024-03-08T13:40:46;19.92;;;6.57;;
70444;SDS011;57902;49.638;11.070;2024-03-08T13:43:15;14.68;;;6.53;;
70444;SDS011;57902;49.638;11.070;2024-03-08T13:45:41;13.45;;;5.55;;
70444;SDS011;57902;49.638;11.070;2024-03-08T13:48:08;15.55;;;6.22;;
70444;SDS011;57902;49.638;11.070;2024-03-08T13:50:39;13.63;;;6.57;;
70444;SDS011;57902;49.638;11.070;2024-03-08T13:53:06;17.65;;;6.28;;
70444;SDS011;57902;49.638;11.070;2024-03-08T13:55:32;14.63;;;5.55;;
70444;SDS011;57902;49.638;11.070;2024-03-08T13:57:59;16.80;;;6.47;;
70444;SDS011;57902;49.638;11.070;2024-03-08T14:00:26;18.33;;;6.47;;
70444;SDS011;57902;49.638;11.070;2024-03-08T14:02:54;16.38;;;6.07;;
70444;SDS011;57902;49.638;11.070;2024-03-08T14:05:21;15.43;;;6.07;;
70444;SDS011;57902;49.638;11.070;2024-03-08T14:07:47;15.65;;;6.25;;
70444;SDS011;57902;49.638;11.070;2024-03-08T14:10:16;14.85;;;5.63;;
70444;SDS011;57902;49.638;11.070;2024-03-08T14:12:47;13.23;;;5.53;;
70444;SDS011;57902;49.638;11.070;2024-03-08T14:15:15;19.65;;;5.22;;
70444;SDS011;57902;49.638;11.070;2024-03-08T14:17:42;14.30;;;5.32;;
70444;SDS011;57902;49.638;11.070;2024-03-08T14:20:12;14.73;;;5.28;;
70444;SDS011;57902;49.638;11.070;2024-03-08T14:22:39;16.40;;;6.47;;
70444;SDS011;57902;49.638;11.070;2024-03-08T14:25:06;16.63;;;6.28;;
70444;SDS011;57902;49.638;11.070;2024-03-08T14:27:32;15.38;;;6.32;;
70444;SDS011;57902;49.638;11.070;2024-03-08T14:29:59;15.07;;;6.68;;
70444;SDS011;57902;49.638;11.070;2024-03-08T14:32:26;15.00;;;5.45;;
70444;SDS011;57902;49.638;11.070;2024-03-08T14:34:52;15.00;;;6.18;;
70444;SDS011;57902;49.638;11.070;2024-03-08T14:37:21;13.98;;;6.00;;
70444;SDS011;57902;49.638;11.070;2024-03-08T14:39:54;11.50;;;4.60;;
70444;SDS011;57902;49.638;11.070;2024-03-08T14:42:22;13.75;;;5.55;;
70444;SDS011;57902;49.638;11.070;2024-03-08T14:44:49;12.18;;;5.25;;